Cavern City Air Terminal


Codes: KCNM/CNM
Name: Cavern City Air Terminal
City: Carlsbad
Country: United States
Elevation: 3295 ft.
Wikipedia:

Photos at Cavern City Air Terminal


   Photos courtesy of SpottingLog. You can add your own sightings and photos by signing up for a free trial today.



No photos found.

Weather at Cavern City Air Terminal


Time (UTC)DescriptionTempratureWindCloud coverageVisibilityPressureHumidity
18-Apr-2024 00:00Clear Sky32°C18 mph, SW0%10000m1012hPa8%
18-Apr-2024 03:00Clear Sky29°C11 mph, SW0%10000m1011hPa9%
18-Apr-2024 06:00Clear Sky25°C11 mph, SW1%10000m1011hPa10%
18-Apr-2024 09:00Clear Sky20°C9 mph, SW0%10000m1010hPa11%
18-Apr-2024 12:00Clear Sky18°C9 mph, W0%10000m1011hPa15%
18-Apr-2024 15:00Clear Sky26°C7 mph, N2%10000m1012hPa10%
18-Apr-2024 18:00Clear Sky30°C4 mph, NE5%10000m1011hPa8%
18-Apr-2024 21:00Few Clouds33°C4 mph, SE12%10000m1008hPa5%
19-Apr-2024 00:00Clear Sky32°C13 mph, SW7%10000m1007hPa5%
19-Apr-2024 03:00Scattered Clouds26°C11 mph, SW35%10000m1010hPa8%
19-Apr-2024 06:00Broken Clouds18°C18 mph, SE51%10000m1015hPa43%
19-Apr-2024 09:00Overcast Clouds15°C11 mph, SE99%10000m1016hPa59%
19-Apr-2024 12:00Overcast Clouds13°C7 mph, SE99%10000m1017hPa68%
19-Apr-2024 15:00Overcast Clouds16°C4 mph, SE96%10000m1017hPa66%
19-Apr-2024 18:00Overcast Clouds22°C13 mph, SE98%10000m1015hPa49%
19-Apr-2024 21:00Overcast Clouds25°C20 mph, SE100%10000m1012hPa41%
20-Apr-2024 00:00Broken Clouds22°C20 mph, SE67%10000m1011hPa52%
20-Apr-2024 03:00Clear Sky19°C20 mph, SE0%10000m1012hPa73%
20-Apr-2024 06:00Clear Sky16°C11 mph, SE4%10000m1013hPa85%
20-Apr-2024 09:00Light Rain16°C11 mph, SE98%10000m1013hPa77%
20-Apr-2024 12:00Light Rain17°C9 mph, SE99%7647m1013hPa87%
20-Apr-2024 15:00Light Rain16°C16 mph, E100%10000m1015hPa84%
20-Apr-2024 18:00Light Rain15°C13 mph, NE100%10000m1018hPa81%
20-Apr-2024 21:00Light Rain13°C13 mph, NE100%10000m1018hPa82%
21-Apr-2024 00:00Light Rain13°C11 mph, NE100%10000m1018hPa79%
21-Apr-2024 03:00Light Rain12°C9 mph, NE100%10000m1020hPa77%
21-Apr-2024 06:00Overcast Clouds11°C7 mph, E100%10000m1020hPa77%
21-Apr-2024 09:00Overcast Clouds11°C7 mph, E95%10000m1021hPa76%
21-Apr-2024 12:00Overcast Clouds11°C7 mph, E98%10000m1022hPa79%
21-Apr-2024 15:00Overcast Clouds11°C2 mph, SE100%10000m1023hPa77%
21-Apr-2024 18:00Overcast Clouds15°C4 mph, E94%10000m1021hPa60%
21-Apr-2024 21:00Few Clouds20°C9 mph, SE20%10000m1017hPa45%
22-Apr-2024 00:00Broken Clouds20°C13 mph, SE55%10000m1015hPa42%
22-Apr-2024 03:00Overcast Clouds18°C16 mph, SE100%10000m1017hPa55%
22-Apr-2024 06:00Overcast Clouds15°C18 mph, SE100%10000m1017hPa69%
22-Apr-2024 09:00Broken Clouds12°C13 mph, SE77%10000m1017hPa80%
22-Apr-2024 12:00Broken Clouds11°C11 mph, SE79%10000m1017hPa89%
22-Apr-2024 15:00Overcast Clouds14°C16 mph, S100%10000m1017hPa79%
22-Apr-2024 18:00Overcast Clouds21°C16 mph, S99%10000m1014hPa49%
22-Apr-2024 21:00Scattered Clouds27°C16 mph, SE36%10000m1009hPa30%